sensor_id;sensor_type;location;lat;lon;timestamp;pressure;altitude;pressure_sealevel;temperature;humidity
76114;BME280;64845;53.086;5.834;2023-02-01T00:01:09;101685.00;;;4.94;73.94
76114;BME280;64845;53.086;5.834;2023-02-01T00:03:34;101691.16;;;4.91;73.96
76114;BME280;64845;53.086;5.834;2023-02-01T00:06:00;101672.63;;;4.91;73.92
76114;BME280;64845;53.086;5.834;2023-02-01T00:08:26;101670.91;;;4.90;74.06
76114;BME280;64845;53.086;5.834;2023-02-01T00:11:18;101665.59;;;4.92;73.96
76114;BME280;64845;53.086;5.834;2023-02-01T00:13:43;101663.81;;;4.92;73.86
76114;BME280;64845;53.086;5.834;2023-02-01T00:16:12;101678.81;;;4.96;73.83
76114;BME280;64845;53.086;5.834;2023-02-01T00:18:39;101660.31;;;4.95;73.58
76114;BME280;64845;53.086;5.834;2023-02-01T00:21:04;101661.16;;;4.95;73.70
76114;BME280;64845;53.086;5.834;2023-02-01T00:23:34;101673.53;;;4.95;73.82
76114;BME280;64845;53.086;5.834;2023-02-01T00:26:04;101672.66;;;4.96;73.97
76114;BME280;64845;53.086;5.834;2023-02-01T00:28:31;101664.72;;;4.96;73.77
76114;BME280;64845;53.086;5.834;2023-02-01T00:31:01;101657.66;;;4.95;73.69
76114;BME280;64845;53.086;5.834;2023-02-01T00:33:28;101687.63;;;4.95;73.72
76114;BME280;64845;53.086;5.834;2023-02-01T00:35:58;101665.59;;;4.96;73.90
76114;BME280;64845;53.086;5.834;2023-02-01T00:38:24;101665.59;;;4.98;73.96
76114;BME280;64845;53.086;5.834;2023-02-01T00:40:50;101654.09;;;5.02;73.64
76114;BME280;64845;53.086;5.834;2023-02-01T00:43:15;101651.44;;;5.02;73.91
76114;BME280;64845;53.086;5.834;2023-02-01T00:45:40;101640.84;;;5.02;73.45
76114;BME280;64845;53.086;5.834;2023-02-01T00:48:06;101655.88;;;5.05;73.88
76114;BME280;64845;53.086;5.834;2023-02-01T00:50:31;101652.31;;;5.07;73.36
76114;BME280;64845;53.086;5.834;2023-02-01T00:52:57;101663.78;;;5.06;73.80
76114;BME280;64845;53.086;5.834;2023-02-01T00:55:22;101658.50;;;5.08;73.76
76114;BME280;64845;53.086;5.834;2023-02-01T00:57:48;101647.03;;;5.07;73.66
76114;BME280;64845;53.086;5.834;2023-02-01T01:00:13;101643.50;;;5.10;73.82
76114;BME280;64845;53.086;5.834;2023-02-01T01:02:39;101647.00;;;5.12;73.64
76114;BME280;64845;53.086;5.834;2023-02-01T01:05:04;101654.94;;;5.12;73.79
76114;BME280;64845;53.086;5.834;2023-02-01T01:07:30;101662.91;;;5.13;73.59
76114;BME280;64845;53.086;5.834;2023-02-01T01:09:55;101645.25;;;5.12;73.25
76114;BME280;64845;53.086;5.834;2023-02-01T01:12:21;101644.38;;;5.10;73.53
76114;BME280;64845;53.086;5.834;2023-02-01T01:14:46;101648.81;;;5.10;73.76
76114;BME280;64845;53.086;5.834;2023-02-01T01:17:11;101637.34;;;5.08;74.24
76114;BME280;64845;53.086;5.834;2023-02-01T01:19:37;101637.34;;;5.08;73.84
76114;BME280;64845;53.086;5.834;2023-02-01T01:22:02;101639.09;;;5.07;73.93
76114;BME280;64845;53.086;5.834;2023-02-01T01:24:27;101648.78;;;5.08;73.94
76114;BME280;64845;53.086;5.834;2023-02-01T01:26:53;101642.59;;;5.09;73.81
76114;BME280;64845;53.086;5.834;2023-02-01T01:29:18;101641.72;;;5.10;73.96
76114;BME280;64845;53.086;5.834;2023-02-01T01:31:44;101628.50;;;5.07;73.90
76114;BME280;64845;53.086;5.834;2023-02-01T01:34:09;101613.50;;;5.08;73.89
76114;BME280;64845;53.086;5.834;2023-02-01T01:36:34;101614.41;;;5.07;74.41
76114;BME280;64845;53.086;5.834;2023-02-01T01:39:00;101615.25;;;5.07;74.19
76114;BME280;64845;53.086;5.834;2023-02-01T01:41:30;101619.69;;;5.02;74.14
76114;BME280;64845;53.086;5.834;2023-02-01T01:44:06;101603.84;;;4.99;74.45
76114;BME280;64845;53.086;5.834;2023-02-01T01:46:51;101613.53;;;4.97;74.87
76114;BME280;64845;53.086;5.834;2023-02-01T01:49:20;101608.22;;;4.95;74.84
76114;BME280;64845;53.086;5.834;2023-02-01T01:51:56;101587.97;;;4.96;75.19
76114;BME280;64845;53.086;5.834;2023-02-01T01:54:33;101602.09;;;4.95;74.79
76114;BME280;64845;53.086;5.834;2023-02-01T01:57:37;101585.31;;;4.90;75.38
76114;BME280;64845;53.086;5.834;2023-02-01T02:00:07;101601.22;;;4.87;75.40
76114;BME280;64845;53.086;5.834;2023-02-01T02:02:35;101588.00;;;4.85;75.69
76114;BME280;64845;53.086;5.834;2023-02-01T02:05:01;101588.03;;;4.80;75.68
76114;BME280;64845;53.086;5.834;2023-02-01T02:07:30;101593.31;;;4.80;75.95
76114;BME280;64845;53.086;5.834;2023-02-01T02:09:57;101591.53;;;4.79;75.74
76114;BME280;64845;53.086;5.834;2023-02-01T02:12:23;101588.03;;;4.80;76.25
76114;BME280;64845;53.086;5.834;2023-02-01T02:14:48;101570.34;;;4.82;76.08
76114;BME280;64845;53.086;5.834;2023-02-01T02:34:29;101541.22;;;4.95;75.86
76114;BME280;64845;53.086;5.834;2023-02-01T02:42:31;101543.84;;;4.96;75.72
76114;BME280;64845;53.086;5.834;2023-02-01T02:45:26;101534.13;;;4.98;75.88
76114;BME280;64845;53.086;5.834;2023-02-01T02:48:26;101527.09;;;4.99;75.65
76114;BME280;64845;53.086;5.834;2023-02-01T02:54:07;101534.13;;;5.02;75.63
76114;BME280;64845;53.086;5.834;2023-02-01T02:56:55;101503.22;;;5.04;75.99
76114;BME280;64845;53.086;5.834;2023-02-01T02:59:43;101492.63;;;5.05;75.70
76114;BME280;64845;53.086;5.834;2023-02-01T03:02:29;101522.59;;;5.07;75.38
76114;BME280;64845;53.086;5.834;2023-02-01T03:05:13;101526.16;;;5.08;75.73
76114;BME280;64845;53.086;5.834;2023-02-01T03:10:17;101490.84;;;5.09;75.62
76114;BME280;64845;53.086;5.834;2023-02-01T03:12:45;101524.38;;;5.10;75.35
76114;BME280;64845;53.086;5.834;2023-02-01T03:15:28;101507.59;;;5.11;75.16
76114;BME280;64845;53.086;5.834;2023-02-01T03:17:57;101499.63;;;5.11;75.53
76114;BME280;64845;53.086;5.834;2023-02-01T03:20:25;101501.41;;;5.10;75.49
76114;BME280;64845;53.086;5.834;2023-02-01T03:22:53;101490.84;;;5.10;75.60
76114;BME280;64845;53.086;5.834;2023-02-01T03:25:27;101508.47;;;5.13;75.34
76114;BME280;64845;53.086;5.834;2023-02-01T03:28:01;101493.47;;;5.13;75.62
76114;BME280;64845;53.086;5.834;2023-02-01T03:30:46;101494.34;;;5.14;75.12
76114;BME280;64845;53.086;5.834;2023-02-01T03:33:19;101496.13;;;5.13;75.60
76114;BME280;64845;53.086;5.834;2023-02-01T03:36:00;101484.63;;;5.16;75.15
76114;BME280;64845;53.086;5.834;2023-02-01T03:38:31;101494.31;;;5.17;75.29
76114;BME280;64845;53.086;5.834;2023-02-01T03:43:33;101498.75;;;5.17;75.03
76114;BME280;64845;53.086;5.834;2023-02-01T03:46:06;101488.16;;;5.12;75.46
76114;BME280;64845;53.086;5.834;2023-02-01T03:48:35;101504.97;;;5.08;75.71
76114;BME280;64845;53.086;5.834;2023-02-01T03:51:03;101493.53;;;5.03;75.52
76114;BME280;64845;53.086;5.834;2023-02-01T03:53:31;101497.09;;;5.00;76.08
76114;BME280;64845;53.086;5.834;2023-02-01T03:55:57;101503.25;;;4.99;76.06
76114;BME280;64845;53.086;5.834;2023-02-01T03:58:23;101501.47;;;4.99;75.89
76114;BME280;64845;53.086;5.834;2023-02-01T04:00:56;101493.53;;;4.99;76.37
76114;BME280;64845;53.086;5.834;2023-02-01T04:03:23;101530.63;;;4.98;76.14
76114;BME280;64845;53.086;5.834;2023-02-01T04:05:50;101507.66;;;5.02;76.25
76114;BME280;64845;53.086;5.834;2023-02-01T04:08:17;101505.00;;;5.02;76.35
76114;BME280;64845;53.086;5.834;2023-02-01T04:10:43;101497.91;;;5.02;76.43
76114;BME280;64845;53.086;5.834;2023-02-01T04:13:09;101500.59;;;5.04;76.27
76114;BME280;64845;53.086;5.834;2023-02-01T04:15:35;101503.22;;;5.05;76.25
76114;BME280;64845;53.086;5.834;2023-02-01T04:18:00;101494.38;;;5.06;76.26
76114;BME280;64845;53.086;5.834;2023-02-01T04:20:26;101494.38;;;5.03;76.38
76114;BME280;64845;53.086;5.834;2023-02-01T04:22:52;101494.38;;;5.03;76.36
76114;BME280;64845;53.086;5.834;2023-02-01T04:25:17;101483.84;;;5.00;76.34
76114;BME280;64845;53.086;5.834;2023-02-01T04:27:43;101492.66;;;4.99;76.09
76114;BME280;64845;53.086;5.834;2023-02-01T04:30:09;101479.44;;;4.96;75.89
76114;BME280;64845;53.086;5.834;2023-02-01T04:32:36;101482.09;;;4.96;76.36
76114;BME280;64845;53.086;5.834;2023-02-01T04:35:02;101451.25;;;4.90;76.02
76114;BME280;64845;53.086;5.834;2023-02-01T04:37:27;101475.06;;;4.89;76.34
76114;BME280;64845;53.086;5.834;2023-02-01T04:39:54;101477.75;;;4.81;76.25
76114;BME280;64845;53.086;5.834;2023-02-01T04:42:19;101485.69;;;4.78;76.31
76114;BME280;64845;53.086;5.834;2023-02-01T04:44:45;101488.34;;;4.75;76.03
76114;BME280;64845;53.086;5.834;2023-02-01T04:47:10;101479.53;;;4.76;76.36
76114;BME280;64845;53.086;5.834;2023-02-01T04:49:36;101475.13;;;4.75;76.47
76114;BME280;64845;53.086;5.834;2023-02-01T04:52:01;101471.59;;;4.76;76.27
76114;BME280;64845;53.086;5.834;2023-02-01T04:54:27;101482.16;;;4.79;76.42
76114;BME280;64845;53.086;5.834;2023-02-01T04:56:52;101485.66;;;4.82;76.21
76114;BME280;64845;53.086;5.834;2023-02-01T04:59:18;101475.97;;;4.84;76.37
76114;BME280;64845;53.086;5.834;2023-02-01T05:01:43;101474.19;;;4.87;76.60
76114;BME280;64845;53.086;5.834;2023-02-01T05:04:08;101466.25;;;4.90;76.57
76114;BME280;64845;53.086;5.834;2023-02-01T05:06:34;101478.59;;;4.91;76.44
76114;BME280;64845;53.086;5.834;2023-02-01T05:08:59;101490.91;;;4.93;76.30
76114;BME280;64845;53.086;5.834;2023-02-01T05:11:24;101485.63;;;4.95;76.59
76114;BME280;64845;53.086;5.834;2023-02-01T05:14:08;101474.13;;;4.97;76.32
76114;BME280;64845;53.086;5.834;2023-02-01T05:16:34;101488.22;;;5.01;76.66
76114;BME280;64845;53.086;5.834;2023-02-01T05:18:59;101487.34;;;5.01;76.42
76114;BME280;64845;53.086;5.834;2023-02-01T05:21:24;101485.56;;;5.04;76.75
76114;BME280;64845;53.086;5.834;2023-02-01T05:23:50;101503.22;;;5.04;76.36
76114;BME280;64845;53.086;5.834;2023-02-01T05:26:33;101508.53;;;5.04;76.21
76114;BME280;64845;53.086;5.834;2023-02-01T05:28:59;101494.41;;;5.05;76.51
76114;BME280;64845;53.086;5.834;2023-02-01T05:31:24;101489.09;;;5.06;76.52
76114;BME280;64845;53.086;5.834;2023-02-01T05:33:50;101497.03;;;5.03;76.47
76114;BME280;64845;53.086;5.834;2023-02-01T05:36:15;101493.53;;;5.03;76.27
76114;BME280;64845;53.086;5.834;2023-02-01T05:38:41;101500.59;;;5.04;76.45
76114;BME280;64845;53.086;5.834;2023-02-01T05:41:06;101495.28;;;5.04;76.45
76114;BME280;64845;53.086;5.834;2023-02-01T05:43:32;101492.63;;;5.05;76.33
76114;BME280;64845;53.086;5.834;2023-02-01T05:45:57;101483.81;;;5.05;76.60
76114;BME280;64845;53.086;5.834;2023-02-01T05:48:23;101486.44;;;5.03;76.54
76114;BME280;64845;53.086;5.834;2023-02-01T05:50:48;101477.63;;;5.01;76.63
76114;BME280;64845;53.086;5.834;2023-02-01T05:53:13;101468.84;;;4.97;76.42
76114;BME280;64845;53.086;5.834;2023-02-01T05:55:39;101486.50;;;4.95;76.28
76114;BME280;64845;53.086;5.834;2023-02-01T05:58:05;101483.88;;;4.91;76.22
76114;BME280;64845;53.086;5.834;2023-02-01T06:00:31;101475.97;;;4.86;76.29
76114;BME280;64845;53.086;5.834;2023-02-01T06:02:56;101483.91;;;4.81;76.53
76114;BME280;64845;53.086;5.834;2023-02-01T06:05:22;101491.00;;;4.78;76.33
76114;BME280;64845;53.086;5.834;2023-02-01T06:07:47;101485.72;;;4.73;76.66
76114;BME280;64845;53.086;5.834;2023-02-01T06:10:15;101491.03;;;4.70;76.81
76114;BME280;64845;53.086;5.834;2023-02-01T06:12:41;101497.19;;;4.69;76.71
76114;BME280;64845;53.086;5.834;2023-02-01T06:15:06;101498.94;;;4.72;76.64
76114;BME280;64845;53.086;5.834;2023-02-01T06:17:32;101486.59;;;4.74;76.95
76114;BME280;64845;53.086;5.834;2023-02-01T06:19:57;101493.63;;;4.78;76.72
76114;BME280;64845;53.086;5.834;2023-02-01T06:22:23;101498.06;;;4.80;77.25
76114;BME280;64845;53.086;5.834;2023-02-01T06:24:48;101496.28;;;4.81;77.03
76114;BME280;64845;53.086;5.834;2023-02-01T06:27:14;101469.78;;;4.82;76.88
76114;BME280;64845;53.086;5.834;2023-02-01T06:29:39;101508.59;;;4.85;76.85
76114;BME280;64845;53.086;5.834;2023-02-01T06:32:05;101481.25;;;4.84;76.86
76114;BME280;64845;53.086;5.834;2023-02-01T06:34:30;101486.56;;;4.81;76.91
76114;BME280;64845;53.086;5.834;2023-02-01T06:36:56;101498.06;;;4.80;77.22
76114;BME280;64845;53.086;5.834;2023-02-01T06:39:21;101501.56;;;4.81;77.09
76114;BME280;64845;53.086;5.834;2023-02-01T06:41:47;101494.50;;;4.81;76.96
76114;BME280;64845;53.086;5.834;2023-02-01T06:44:13;101484.78;;;4.83;77.12
76114;BME280;64845;53.086;5.834;2023-02-01T06:46:39;101487.44;;;4.85;76.98
76114;BME280;64845;53.086;5.834;2023-02-01T06:49:04;101484.78;;;4.87;77.37
76114;BME280;64845;53.086;5.834;2023-02-01T06:51:30;101486.56;;;4.89;77.23
76114;BME280;64845;53.086;5.834;2023-02-01T06:53:56;101498.91;;;4.87;77.14
76114;BME280;64845;53.086;5.834;2023-02-01T06:56:21;101490.09;;;4.85;77.44
76114;BME280;64845;53.086;5.834;2023-02-01T06:58:47;101495.38;;;4.83;77.34
76114;BME280;64845;53.086;5.834;2023-02-01T07:01:13;101509.53;;;4.79;77.45
76114;BME280;64845;53.086;5.834;2023-02-01T07:03:39;101496.31;;;4.76;77.08
76114;BME280;64845;53.086;5.834;2023-02-01T07:06:05;101491.91;;;4.75;77.28
76114;BME280;64845;53.086;5.834;2023-02-01T07:08:34;101487.50;;;4.74;77.41
76114;BME280;64845;53.086;5.834;2023-02-01T07:11:07;101486.63;;;4.72;77.78
76114;BME280;64845;53.086;5.834;2023-02-01T07:13:33;101484.84;;;4.68;77.87
76114;BME280;64845;53.086;5.834;2023-02-01T07:16:00;101498.97;;;4.67;77.94
76114;BME280;64845;53.086;5.834;2023-02-01T07:18:26;101479.56;;;4.65;77.47
76114;BME280;64845;53.086;5.834;2023-02-01T07:20:52;101476.94;;;4.63;77.32
76114;BME280;64845;53.086;5.834;2023-02-01T07:23:17;101476.94;;;4.65;77.82
76114;BME280;64845;53.086;5.834;2023-02-01T07:25:43;101474.31;;;4.63;77.67
76114;BME280;64845;53.086;5.834;2023-02-01T07:28:08;101483.13;;;4.65;77.91
76114;BME280;64845;53.086;5.834;2023-02-01T07:30:34;101476.06;;;4.63;77.91
76114;BME280;64845;53.086;5.834;2023-02-01T07:32:59;101473.44;;;4.61;77.64
76114;BME280;64845;53.086;5.834;2023-02-01T07:35:27;101489.31;;;4.60;77.92
76114;BME280;64845;53.086;5.834;2023-02-01T07:37:53;101494.59;;;4.60;77.85
76114;BME280;64845;53.086;5.834;2023-02-01T07:40:18;101486.66;;;4.58;77.59
76114;BME280;64845;53.086;5.834;2023-02-01T07:42:48;101491.94;;;4.58;77.98
76114;BME280;64845;53.086;5.834;2023-02-01T07:45:13;101490.19;;;4.59;78.18
76114;BME280;64845;53.086;5.834;2023-02-01T07:47:40;101482.28;;;4.59;77.69
76114;BME280;64845;53.086;5.834;2023-02-01T07:50:05;101502.53;;;4.60;77.98
76114;BME280;64845;53.086;5.834;2023-02-01T07:52:31;101504.28;;;4.59;77.96
76114;BME280;64845;53.086;5.834;2023-02-01T07:54:56;101504.28;;;4.59;77.96
76114;BME280;64845;53.086;5.834;2023-02-01T07:57:22;101504.31;;;4.58;78.26
76114;BME280;64845;53.086;5.834;2023-02-01T07:59:47;101507.81;;;4.58;78.15
76114;BME280;64845;53.086;5.834;2023-02-01T08:02:31;101515.78;;;4.57;78.56
76114;BME280;64845;53.086;5.834;2023-02-01T08:04:56;101514.00;;;4.57;78.52
76114;BME280;64845;53.086;5.834;2023-02-01T08:07:22;101528.09;;;4.59;78.28
76114;BME280;64845;53.086;5.834;2023-02-01T08:09:47;101519.28;;;4.60;78.14
76114;BME280;64845;53.086;5.834;2023-02-01T08:12:12;101519.28;;;4.60;78.19
76114;BME280;64845;53.086;5.834;2023-02-01T08:14:38;101516.63;;;4.63;78.48
76114;BME280;64845;53.086;5.834;2023-02-01T08:17:06;101514.88;;;4.65;78.75
76114;BME280;64845;53.086;5.834;2023-02-01T08:19:31;101502.50;;;4.69;78.39
76114;BME280;64845;53.086;5.834;2023-02-01T08:21:56;101482.19;;;4.73;78.33
76114;BME280;64845;53.086;5.834;2023-02-01T08:24:22;101500.69;;;4.76;78.28
76114;BME280;64845;53.086;5.834;2023-02-01T08:26:47;101519.22;;;4.80;78.42
76114;BME280;64845;53.086;5.834;2023-02-01T08:29:13;101500.66;;;4.83;78.23
76114;BME280;64845;53.086;5.834;2023-02-01T08:31:39;101505.06;;;4.88;78.55
76114;BME280;64845;53.086;5.834;2023-02-01T08:34:08;101483.03;;;4.90;78.52
76114;BME280;64845;53.086;5.834;2023-02-01T08:36:34;101482.97;;;4.93;78.23
76114;BME280;64845;53.086;5.834;2023-02-01T08:39:00;101483.88;;;4.94;78.47
76114;BME280;64845;53.086;5.834;2023-02-01T08:41:29;101483.84;;;4.95;78.28
76114;BME280;64845;53.086;5.834;2023-02-01T08:43:55;101482.97;;;4.96;77.95
76114;BME280;64845;53.086;5.834;2023-02-01T08:46:21;101466.22;;;4.99;78.20
76114;BME280;64845;53.086;5.834;2023-02-01T08:48:47;101489.97;;;5.02;78.09
76114;BME280;64845;53.086;5.834;2023-02-01T08:51:15;101474.13;;;5.04;78.10
76114;BME280;64845;53.086;5.834;2023-02-01T08:53:41;101454.72;;;5.02;77.89
76114;BME280;64845;53.086;5.834;2023-02-01T08:56:07;101476.75;;;5.04;78.02
76114;BME280;64845;53.086;5.834;2023-02-01T08:58:33;101458.22;;;5.04;77.80
76114;BME280;64845;53.086;5.834;2023-02-01T09:01:03;101458.22;;;5.05;77.49
76114;BME280;64845;53.086;5.834;2023-02-01T09:03:28;101470.56;;;5.06;77.90
76114;BME280;64845;53.086;5.834;2023-02-01T09:06:02;101471.44;;;5.05;77.98
76114;BME280;64845;53.086;5.834;2023-02-01T09:08:28;101460.84;;;5.05;77.89
76114;BME280;64845;53.086;5.834;2023-02-01T09:11:01;101443.22;;;5.06;77.47
76114;BME280;64845;53.086;5.834;2023-02-01T09:13:27;101430.84;;;5.06;77.58
76114;BME280;64845;53.086;5.834;2023-02-01T09:15:53;101426.47;;;5.07;77.74
76114;BME280;64845;53.086;5.834;2023-02-01T09:18:18;101444.09;;;5.08;77.85
76114;BME280;64845;53.086;5.834;2023-02-01T09:20:43;101435.25;;;5.07;77.81
76114;BME280;64845;53.086;5.834;2023-02-01T09:23:09;101436.16;;;5.08;77.72
76114;BME280;64845;53.086;5.834;2023-02-01T09:25:37;101454.63;;;5.11;77.95
76114;BME280;64845;53.086;5.834;2023-02-01T09:28:03;101439.66;;;5.11;77.46
76114;BME280;64845;53.086;5.834;2023-02-01T09:30:34;101430.81;;;5.12;77.75
76114;BME280;64845;53.086;5.834;2023-02-01T09:33:00;101421.06;;;5.16;77.71
76114;BME280;64845;53.086;5.834;2023-02-01T09:35:25;101410.50;;;5.18;77.70
76114;BME280;64845;53.086;5.834;2023-02-01T09:37:52;101411.38;;;5.20;77.48
76114;BME280;64845;53.086;5.834;2023-02-01T09:40:18;101417.53;;;5.20;77.74
76114;BME280;64845;53.086;5.834;2023-02-01T09:48:20;101421.03;;;5.25;77.60
76114;BME280;64845;53.086;5.834;2023-02-01T09:50:52;101406.00;;;5.26;77.23
76114;BME280;64845;53.086;5.834;2023-02-01T09:56:00;101396.28;;;5.29;77.51
76114;BME280;64845;53.086;5.834;2023-02-01T09:58:37;101414.81;;;5.31;76.96
76114;BME280;64845;53.086;5.834;2023-02-01T10:01:19;101386.53;;;5.33;77.15
76114;BME280;64845;53.086;5.834;2023-02-01T10:03:45;101413.88;;;5.34;77.19
76114;BME280;64845;53.086;5.834;2023-02-01T10:09:04;101419.16;;;5.38;76.95
76114;BME280;64845;53.086;5.834;2023-02-01T10:22:43;101438.47;;;5.53;76.95
76114;BME280;64845;53.086;5.834;2023-02-01T10:25:17;101418.13;;;5.56;76.91
76114;BME280;64845;53.086;5.834;2023-02-01T10:27:45;101425.16;;;5.60;76.86
76114;BME280;64845;53.086;5.834;2023-02-01T10:30:25;101411.84;;;5.65;76.64
76114;BME280;64845;53.086;5.834;2023-02-01T10:33:07;101423.31;;;5.70;76.81
76114;BME280;64845;53.086;5.834;2023-02-01T10:35:38;101407.41;;;5.70;76.71
76114;BME280;64845;53.086;5.834;2023-02-01T10:38:14;101403.84;;;5.74;76.63
76114;BME280;64845;53.086;5.834;2023-02-01T10:40:42;101405.63;;;5.72;76.44
76114;BME280;64845;53.086;5.834;2023-02-01T10:43:07;101409.13;;;5.73;76.61
76114;BME280;64845;53.086;5.834;2023-02-01T10:45:34;101387.00;;;5.77;76.21
76114;BME280;64845;53.086;5.834;2023-02-01T10:48:02;101383.44;;;5.80;76.18
76114;BME280;64845;53.086;5.834;2023-02-01T10:50:52;101397.56;;;5.82;76.07
76114;BME280;64845;53.086;5.834;2023-02-01T10:53:25;101412.53;;;5.86;76.01
76114;BME280;64845;53.086;5.834;2023-02-01T10:55:55;101395.72;;;5.88;76.10
76114;BME280;64845;53.086;5.834;2023-02-01T10:58:28;101394.81;;;5.91;75.88
76114;BME280;64845;53.086;5.834;2023-02-01T11:01:03;101401.03;;;5.88;75.77
76114;BME280;64845;53.086;5.834;2023-02-01T11:08:45;101412.56;;;5.84;76.12
76114;BME280;64845;53.086;5.834;2023-02-01T11:11:11;101410.78;;;5.85;76.17
76114;BME280;64845;53.086;5.834;2023-02-01T11:13:38;101429.34;;;5.85;76.42
76114;BME280;64845;53.086;5.834;2023-02-01T11:16:04;101398.44;;;5.82;76.13
76114;BME280;64845;53.086;5.834;2023-02-01T11:18:35;101409.94;;;5.80;76.35
76114;BME280;64845;53.086;5.834;2023-02-01T11:21:01;101408.19;;;5.80;76.41
76114;BME280;64845;53.086;5.834;2023-02-01T11:23:29;101395.81;;;5.79;76.50
76114;BME280;64845;53.086;5.834;2023-02-01T11:26:00;101405.53;;;5.79;76.41
76114;BME280;64845;53.086;5.834;2023-02-01T11:28:32;101401.19;;;5.74;76.73
76114;BME280;64845;53.086;5.834;2023-02-01T11:31:04;101407.41;;;5.70;76.50
76114;BME280;64845;53.086;5.834;2023-02-01T11:33:34;101418.00;;;5.70;76.89
76114;BME280;64845;53.086;5.834;2023-02-01T11:36:07;101405.63;;;5.69;77.12
76114;BME280;64845;53.086;5.834;2023-02-01T11:38:34;101405.63;;;5.69;77.06
76114;BME280;64845;53.086;5.834;2023-02-01T11:43:37;101407.41;;;5.70;77.10
76114;BME280;64845;53.086;5.834;2023-02-01T11:46:16;101416.22;;;5.72;77.09
76114;BME280;64845;53.086;5.834;2023-02-01T11:48:42;101423.22;;;5.78;76.99
76114;BME280;64845;53.086;5.834;2023-02-01T11:53:52;101416.09;;;5.85;76.98
76114;BME280;64845;53.086;5.834;2023-02-01T11:59:09;101405.34;;;6.00;76.96
76114;BME280;64845;53.086;5.834;2023-02-01T12:02:03;101414.09;;;6.09;76.93
76114;BME280;64845;53.086;5.834;2023-02-01T12:07:23;101411.31;;;6.21;76.79
76114;BME280;64845;53.086;5.834;2023-02-01T12:26:38;101379.31;;;6.35;76.23
76114;BME280;64845;53.086;5.834;2023-02-01T12:39:31;101419.91;;;6.42;76.44
76114;BME280;64845;53.086;5.834;2023-02-01T12:42:16;101420.84;;;6.38;76.39
76114;BME280;64845;53.086;5.834;2023-02-01T12:45:01;101424.44;;;6.33;76.37
76114;BME280;64845;53.086;5.834;2023-02-01T12:47:39;101415.66;;;6.28;76.40
76114;BME280;64845;53.086;5.834;2023-02-01T12:55:16;101424.50;;;6.27;76.55
76114;BME280;64845;53.086;5.834;2023-02-01T12:57:49;101437.81;;;6.23;76.65
76114;BME280;64845;53.086;5.834;2023-02-01T13:01:05;101432.53;;;6.21;76.70
76114;BME280;64845;53.086;5.834;2023-02-01T13:03:44;101436.03;;;6.23;76.81
76114;BME280;64845;53.086;5.834;2023-02-01T13:06:22;101443.09;;;6.26;76.93
76114;BME280;64845;53.086;5.834;2023-02-01T13:11:30;101437.69;;;6.35;76.92
76114;BME280;64845;53.086;5.834;2023-02-01T13:16:32;101422.44;;;6.54;77.08
76114;BME280;64845;53.086;5.834;2023-02-01T13:21:56;101442.69;;;6.60;76.88
76114;BME280;64845;53.086;5.834;2023-02-01T13:24:36;101434.72;;;6.58;77.10
76114;BME280;64845;53.086;5.834;2023-02-01T13:27:02;101441.78;;;6.59;77.02
76114;BME280;64845;53.086;5.834;2023-02-01T13:29:29;101425.88;;;6.61;76.93
76114;BME280;64845;53.086;5.834;2023-02-01T13:40:33;101444.38;;;6.65;76.50
76114;BME280;64845;53.086;5.834;2023-02-01T13:43:15;101460.31;;;6.65;76.54
76114;BME280;64845;53.086;5.834;2023-02-01T13:45:50;101447.94;;;6.66;77.03
76114;BME280;64845;53.086;5.834;2023-02-01T13:48:24;101438.22;;;6.65;76.81
76114;BME280;64845;53.086;5.834;2023-02-01T13:50:54;101438.25;;;6.62;76.75
76114;BME280;64845;53.086;5.834;2023-02-01T13:53:26;101467.44;;;6.60;76.73
76114;BME280;64845;53.086;5.834;2023-02-01T13:56:02;101444.44;;;6.61;77.27
76114;BME280;64845;53.086;5.834;2023-02-01T13:58:31;101455.09;;;6.58;76.82
76114;BME280;64845;53.086;5.834;2023-02-01T14:06:36;101448.81;;;6.63;77.18
76114;BME280;64845;53.086;5.834;2023-02-01T14:14:45;101469.16;;;6.66;76.97
76114;BME280;64845;53.086;5.834;2023-02-01T14:19:36;101455.81;;;6.71;77.11
76114;BME280;64845;53.086;5.834;2023-02-01T14:24:39;101470.84;;;6.72;77.14
76114;BME280;64845;53.086;5.834;2023-02-01T14:29:35;101485.91;;;6.70;77.21
76114;BME280;64845;53.086;5.834;2023-02-01T14:34:49;101478.88;;;6.65;77.40
76114;BME280;64845;53.086;5.834;2023-02-01T14:42:43;101477.19;;;6.58;77.48
76114;BME280;64845;53.086;5.834;2023-02-01T14:47:48;101491.41;;;6.54;77.44
76114;BME280;64845;53.086;5.834;2023-02-01T15:01:06;101510.97;;;6.44;77.55
76114;BME280;64845;53.086;5.834;2023-02-01T15:06:31;101522.50;;;6.40;77.78
76114;BME280;64845;53.086;5.834;2023-02-01T15:09:02;101526.06;;;6.37;77.82
76114;BME280;64845;53.086;5.834;2023-02-01T15:11:28;101504.00;;;6.35;77.68
76114;BME280;64845;53.086;5.834;2023-02-01T15:13:54;101518.16;;;6.34;77.44
76114;BME280;64845;53.086;5.834;2023-02-01T15:16:23;101528.75;;;6.35;77.88
76114;BME280;64845;53.086;5.834;2023-02-01T15:18:50;101528.75;;;6.35;77.75
76114;BME280;64845;53.086;5.834;2023-02-01T15:21:22;101531.41;;;6.35;77.86
76114;BME280;64845;53.086;5.834;2023-02-01T15:23:48;101523.41;;;6.39;77.95
76114;BME280;64845;53.086;5.834;2023-02-01T15:26:29;101534.00;;;6.40;78.25
76114;BME280;64845;53.086;5.834;2023-02-01T15:28:57;101532.22;;;6.41;78.06
76114;BME280;64845;53.086;5.834;2023-02-01T15:31:43;101533.13;;;6.38;77.94
76114;BME280;64845;53.086;5.834;2023-02-01T15:34:10;101525.22;;;6.33;77.90
76114;BME280;64845;53.086;5.834;2023-02-01T15:36:35;101535.88;;;6.29;77.79
76114;BME280;64845;53.086;5.834;2023-02-01T15:39:17;101543.00;;;6.25;77.94
76114;BME280;64845;53.086;5.834;2023-02-01T15:41:48;101543.03;;;6.19;78.04
76114;BME280;64845;53.086;5.834;2023-02-01T15:46:41;101549.31;;;6.12;78.23
76114;BME280;64845;53.086;5.834;2023-02-01T15:49:26;101554.63;;;6.09;78.34
76114;BME280;64845;53.086;5.834;2023-02-01T15:51:53;101566.16;;;6.04;78.18
76114;BME280;64845;53.086;5.834;2023-02-01T15:54:24;101555.53;;;6.04;78.38